createdAt,value
2022-08-31T00:00:09.575Z,99927.09
2022-08-31T00:02:54.684Z,99933.63
2022-08-31T00:05:22.938Z,99930.91
2022-08-31T00:07:51.010Z,99930.09
2022-08-31T00:10:31.633Z,99929.28
2022-08-31T00:13:09.710Z,99930.91
2022-08-31T00:15:37.780Z,99929.28
2022-08-31T00:18:06.024Z,99930.09
2022-08-31T00:20:34.700Z,99930.91
2022-08-31T00:23:03.408Z,99928.44
2022-08-31T00:25:31.578Z,99929.28
2022-08-31T00:27:59.684Z,99925.47
2022-08-31T00:30:29.130Z,99925.47
2022-08-31T00:32:58.561Z,99922.75
2022-08-31T00:35:26.969Z,99928.19
2022-08-31T00:37:55.037Z,99927.09
2022-08-31T00:40:23.354Z,99925.47
2022-08-31T00:42:51.509Z,99927.38
2022-08-31T00:45:19.533Z,99925.47
2022-08-31T00:47:48.981Z,99923.56
2022-08-31T00:50:17.841Z,99926.56
2022-08-31T00:52:47.254Z,99936.34
2022-08-31T00:55:17.741Z,99932.81
2022-08-31T00:57:47.393Z,99931.16
2022-08-31T01:00:18.037Z,99929.28
2022-08-31T01:02:46.185Z,99934.72
2022-08-31T01:05:15.728Z,99923.00
2022-08-31T01:07:43.967Z,99931.41
2022-08-31T01:10:12.011Z,99915.13
2022-08-31T01:12:40.050Z,99924.09
2022-08-31T01:15:09.460Z,99925.19
2022-08-31T01:17:39.017Z,99928.72
2022-08-31T01:20:10.903Z,99921.59
2022-08-31T01:22:41.964Z,99925.19
2022-08-31T01:25:11.349Z,99920.56
2022-08-31T01:27:39.267Z,99920.56
2022-08-31T01:30:10.769Z,99928.72
2022-08-31T01:32:38.770Z,99925.19
2022-08-31T01:35:11.616Z,99926.00
2022-08-31T01:37:39.667Z,99920.56
2022-08-31T01:40:08.791Z,99920.56
2022-08-31T01:42:38.279Z,99913.44
2022-08-31T01:45:07.118Z,99920.56
2022-08-31T01:47:35.340Z,99911.56
2022-08-31T01:50:03.325Z,99920.56
2022-08-31T01:52:31.291Z,99917.25
2022-08-31T01:54:59.287Z,99917.25
2022-08-31T01:57:33.789Z,99929.75
2022-08-31T02:00:04.730Z,99922.69
2022-08-31T02:02:33.091Z,99922.69
2022-08-31T02:05:01.154Z,99921.06
2022-08-31T02:07:29.199Z,99928.38
2022-08-31T02:09:57.349Z,99931.94
2022-08-31T02:12:25.362Z,99926.50
2022-08-31T02:14:53.371Z,99927.84
2022-08-31T02:17:22.794Z,99931.38
2022-08-31T02:19:50.826Z,99928.66
2022-08-31T02:22:18.798Z,99925.94
2022-08-31T02:24:46.806Z,99925.94
2022-08-31T02:27:14.797Z,99920.50
2022-08-31T02:29:42.915Z,99923.22
2022-08-31T02:32:19.625Z,99919.41
2022-08-31T02:34:49.737Z,99918.59
2022-08-31T02:37:17.843Z,99919.69
2022-08-31T02:39:48.754Z,99919.41
2022-08-31T02:42:18.437Z,99924.03
2022-08-31T02:44:46.716Z,99923.22
2022-08-31T02:47:14.749Z,99917.78
2022-08-31T02:49:42.785Z,99921.31
2022-08-31T02:52:12.359Z,99925.94
2022-08-31T02:54:40.357Z,99927.84
2022-08-31T02:57:08.452Z,99929.75
2022-08-31T02:59:36.463Z,99925.34
2022-08-31T03:02:04.623Z,99930.78
2022-08-31T03:04:32.749Z,99928.34
2022-08-31T03:07:00.785Z,99923.72
2022-08-31T03:09:31.792Z,99923.72
2022-08-31T03:11:59.847Z,99922.91
2022-08-31T03:14:27.972Z,99926.44
2022-08-31T03:16:56.078Z,99927.50
2022-08-31T03:19:24.063Z,99922.06
2022-08-31T03:21:55.875Z,99920.44
2022-08-31T03:24:27.140Z,99920.44
2022-08-31T03:26:57.340Z,99921.25
2022-08-31T03:29:25.411Z,99926.69
2022-08-31T03:31:53.520Z,99920.44
2022-08-31T03:34:21.588Z,99922.06
2022-08-31T03:36:49.677Z,99923.16
2022-08-31T03:39:17.687Z,99929.41
2022-08-31T03:41:45.747Z,99929.41
2022-08-31T03:44:15.237Z,99923.97
2022-08-31T03:46:45.855Z,99925.88
2022-08-31T03:49:14.026Z,99930.22
2022-08-31T03:51:42.035Z,99928.59
2022-08-31T03:54:10.047Z,99943.00
2022-08-31T03:56:38.129Z,99930.50
2022-08-31T03:59:06.877Z,99937.84
2022-08-31T04:01:36.454Z,99941.38
2022-08-31T04:04:05.117Z,99941.38
2022-08-31T04:06:33.133Z,99933.44
2022-08-31T04:09:01.459Z,99944.31
2022-08-31T04:11:44.839Z,99940.56
2022-08-31T04:14:15.405Z,99943.75
2022-08-31T04:16:45.172Z,99945.41
2022-08-31T04:19:15.980Z,99941.88
2022-08-31T04:21:44.849Z,99936.44
2022-08-31T04:24:13.179Z,99941.03
2022-08-31T04:26:41.705Z,99939.41
2022-08-31T04:29:13.399Z,99944.84
2022-08-31T04:31:41.765Z,99944.03
2022-08-31T04:34:11.222Z,99944.03
2022-08-31T04:36:39.328Z,99946.97
2022-08-31T04:39:07.528Z,99943.44
2022-08-31T04:41:36.339Z,99952.41
2022-08-31T04:44:05.370Z,99943.44
2022-08-31T04:46:34.537Z,99950.78
2022-08-31T04:49:02.610Z,99948.06
2022-08-31T04:51:35.577Z,99949.97
2022-08-31T04:54:04.031Z,99956.22
2022-08-31T04:56:33.005Z,99949.97
2022-08-31T04:59:01.830Z,99949.97
2022-08-31T05:01:36.222Z,99949.13
2022-08-31T05:04:10.636Z,99955.66
2022-08-31T05:06:41.264Z,99958.38
2022-08-31T05:09:10.927Z,99951.03
2022-08-31T05:11:39.148Z,99950.22
2022-08-31T05:14:08.017Z,99947.50
2022-08-31T05:16:36.080Z,99951.84
2022-08-31T05:19:04.122Z,99951.03
2022-08-31T05:21:32.939Z,99948.31
2022-08-31T05:24:03.222Z,99952.69
2022-08-31T05:26:32.658Z,99946.41
2022-08-31T05:29:01.336Z,99960.00
2022-08-31T05:31:30.200Z,99956.22
2022-08-31T05:33:58.643Z,99962.47
2022-08-31T05:36:26.810Z,99966.00
2022-08-31T05:39:00.279Z,99961.66
2022-08-31T05:41:30.691Z,99968.72
2022-08-31T05:43:58.745Z,99975.25
2022-08-31T05:46:27.517Z,99968.72
2022-08-31T05:48:55.598Z,99973.34
2022-08-31T05:51:23.673Z,99979.34
2022-08-31T05:53:51.722Z,99982.31
2022-08-31T05:56:23.515Z,99979.59
2022-08-31T05:58:53.043Z,99979.59
2022-08-31T06:01:22.002Z,99986.69
2022-08-31T06:03:50.423Z,99983.13
2022-08-31T06:06:18.471Z,99980.41
2022-08-31T06:08:46.678Z,99982.06
2022-08-31T06:11:17.606Z,99982.06
2022-08-31T06:13:45.674Z,99981.25
2022-08-31T06:16:17.620Z,99982.31
2022-08-31T06:18:49.792Z,99985.03
2022-08-31T06:21:21.128Z,99985.84
2022-08-31T06:23:49.779Z,99987.50
2022-08-31T06:26:18.737Z,99979.59
2022-08-31T06:28:48.472Z,99985.84
2022-08-31T06:31:24.191Z,99982.88
2022-08-31T06:33:53.057Z,99982.31
2022-08-31T06:36:22.081Z,99987.75
2022-08-31T06:38:50.162Z,99979.59
2022-08-31T06:41:19.341Z,99974.16
2022-08-31T06:43:47.754Z,99983.41
2022-08-31T06:46:17.645Z,99982.31
2022-08-31T06:48:45.735Z,99982.88
2022-08-31T06:51:13.923Z,99978.78
2022-08-31T06:53:42.528Z,99982.88
2022-08-31T06:56:20.189Z,99988.31
2022-08-31T06:58:53.993Z,99979.34
2022-08-31T07:01:38.095Z,99977.47
2022-08-31T07:04:07.591Z,99988.31
2022-08-31T07:06:38.511Z,99984.53
2022-08-31T07:09:07.852Z,99985.59
2022-08-31T07:11:39.955Z,99980.19
2022-08-31T07:14:12.811Z,99979.09
2022-08-31T07:16:45.505Z,99989.97
2022-08-31T07:19:14.082Z,99987.25
2022-08-31T07:21:43.106Z,99981.81
2022-08-31T07:24:11.327Z,99976.38
2022-08-31T07:26:40.780Z,99987.25
2022-08-31T07:29:10.040Z,99989.97
2022-08-31T07:31:44.717Z,99974.75
2022-08-31T07:34:14.709Z,99974.75
2022-08-31T07:37:00.119Z,99973.66
2022-08-31T07:39:45.899Z,99981.81
2022-08-31T07:42:14.363Z,99974.50
2022-08-31T07:44:42.466Z,99972.59
2022-08-31T07:47:22.516Z,99981.81
2022-08-31T07:49:52.853Z,99975.03
2022-08-31T07:52:23.751Z,99981.56
2022-08-31T07:54:51.998Z,99974.22
2022-08-31T07:57:22.595Z,99973.16
2022-08-31T07:59:55.502Z,99967.72
2022-08-31T08:02:23.845Z,99973.16
2022-08-31T08:04:53.998Z,99973.97
2022-08-31T08:07:22.099Z,99977.28
2022-08-31T08:09:50.154Z,99974.56
2022-08-31T08:12:22.619Z,99970.19
2022-08-31T08:14:52.879Z,99966.41
2022-08-31T08:17:20.911Z,99965.56
2022-08-31T08:19:49.040Z,99964.75
2022-08-31T08:22:41.497Z,99964.50
2022-08-31T08:25:09.734Z,99962.59
2022-08-31T08:27:37.817Z,99964.50
2022-08-31T08:30:06.303Z,99966.13
2022-08-31T08:32:34.901Z,99962.34
2022-08-31T08:35:02.954Z,99963.16
2022-08-31T08:37:56.621Z,99962.91
2022-08-31T08:40:28.339Z,99962.91
2022-08-31T08:42:56.594Z,99957.47
2022-08-31T08:45:24.680Z,99956.41
2022-08-31T08:47:54.570Z,99956.13
2022-08-31T08:50:22.665Z,99954.22
2022-08-31T08:52:52.121Z,99954.22
2022-08-31T08:55:22.114Z,99955.06
2022-08-31T08:57:52.393Z,99951.50
2022-08-31T09:00:21.381Z,99950.47
2022-08-31T09:02:58.190Z,99939.56
2022-08-31T09:05:35.896Z,99939.56
2022-08-31T09:08:16.486Z,99938.50
2022-08-31T09:10:46.209Z,99936.59
2022-08-31T09:13:19.396Z,99933.06
2022-08-31T09:15:56.017Z,99941.78
2022-08-31T09:18:33.044Z,99930.91
2022-08-31T09:21:05.812Z,99929.81
2022-08-31T09:23:38.052Z,99927.09
2022-08-31T09:26:08.599Z,99928.75
2022-08-31T09:28:38.701Z,99924.94
2022-08-31T09:31:06.946Z,99926.63
2022-08-31T09:33:36.282Z,99922.81
2022-08-31T09:36:17.409Z,99920.09
2022-08-31T09:38:47.181Z,99915.22
2022-08-31T09:41:22.391Z,99913.31
2022-08-31T09:43:51.409Z,99917.66
2022-08-31T09:46:24.796Z,99904.06
2022-08-31T09:48:56.104Z,99896.72
2022-08-31T09:51:25.705Z,99898.38
2022-08-31T09:54:13.057Z,99896.47
2022-08-31T09:56:55.653Z,99889.13
2022-08-31T09:59:43.954Z,99887.00
2022-08-31T10:02:13.306Z,99887.22
2022-08-31T10:04:51.089Z,99885.34
2022-08-31T10:07:28.995Z,99868.19
2022-08-31T10:10:00.207Z,99871.75
2022-08-31T10:12:34.147Z,99870.91
2022-08-31T10:15:05.148Z,99865.75
2022-08-31T10:17:36.156Z,99864.94
2022-08-31T10:20:08.020Z,99860.31
2022-08-31T10:22:41.072Z,99866.81
2022-08-31T10:25:17.401Z,99872.81
2022-08-31T10:27:48.214Z,99861.94
2022-08-31T10:30:24.031Z,99860.88
2022-08-31T10:32:55.618Z,99856.50
2022-08-31T10:35:28.081Z,99853.78
2022-08-31T10:37:59.667Z,99846.44
2022-08-31T10:40:32.165Z,99851.63
2022-08-31T10:43:18.720Z,99848.91
2022-08-31T10:45:48.302Z,99840.75
2022-08-31T10:48:17.587Z,99835.06
2022-08-31T10:50:49.723Z,99832.91
2022-08-31T10:53:32.652Z,99825.59
2022-08-31T10:56:14.328Z,99825.59
2022-08-31T10:59:04.243Z,99821.78
2022-08-31T11:01:36.435Z,99824.50
2022-08-31T11:04:26.023Z,99824.50
2022-08-31T11:06:58.862Z,99821.53
2022-08-31T11:09:32.761Z,99821.53
2022-08-31T11:12:07.092Z,99816.09
2022-08-31T11:14:48.477Z,99815.00
2022-08-31T11:17:23.732Z,99808.75
2022-08-31T11:20:03.772Z,99816.91
2022-08-31T11:22:38.967Z,99813.09
2022-08-31T11:25:16.954Z,99813.91
2022-08-31T11:27:46.608Z,99814.75
2022-08-31T11:30:26.830Z,99819.09
2022-08-31T11:32:56.713Z,99814.47
2022-08-31T11:35:57.423Z,99815.28
2022-08-31T11:38:50.179Z,99806.06
2022-08-31T11:41:43.673Z,99806.06
2022-08-31T11:44:45.714Z,99794.34
2022-08-31T11:47:14.533Z,99797.91
2022-08-31T11:49:47.567Z,99794.91
2022-08-31T11:52:29.592Z,99788.66
2022-08-31T11:55:01.628Z,99788.66
2022-08-31T11:57:35.599Z,99781.59
2022-08-31T12:00:08.721Z,99785.94
2022-08-31T12:02:44.732Z,99784.03
2022-08-31T12:05:13.122Z,99777.78
2022-08-31T12:07:42.605Z,99778.59
2022-08-31T12:10:27.771Z,99779.41
2022-08-31T12:13:19.970Z,99772.34
2022-08-31T12:16:23.470Z,99769.63
2022-08-31T12:19:39.490Z,99765.81
2022-08-31T12:22:32.104Z,99768.53
2022-08-31T12:25:09.698Z,99760.97
2022-08-31T12:27:41.271Z,99749.22
2022-08-31T12:30:16.763Z,99750.06
2022-08-31T12:32:44.907Z,99755.53
2022-08-31T12:35:17.805Z,99744.63
2022-08-31T12:37:45.860Z,99750.91
2022-08-31T12:40:19.077Z,99745.44
2022-08-31T12:43:01.461Z,99747.09
2022-08-31T12:46:01.762Z,99736.22
2022-08-31T12:48:48.167Z,99735.41
2022-08-31T12:51:33.071Z,99736.47
2022-08-31T12:54:21.169Z,99740.84
2022-08-31T12:56:53.209Z,99740.84
2022-08-31T12:59:45.775Z,99728.31
2022-08-31T13:02:16.688Z,99729.38
2022-08-31T13:04:46.055Z,99725.59
2022-08-31T13:07:16.751Z,99727.47
2022-08-31T13:09:45.958Z,99726.66
2022-08-31T13:12:22.992Z,99717.44
2022-08-31T13:14:51.030Z,99720.41
2022-08-31T13:17:21.970Z,99726.66
2022-08-31T13:19:52.099Z,99722.88
2022-08-31T13:22:28.823Z,99712.81
2022-08-31T13:24:57.563Z,99712.00
2022-08-31T13:27:26.666Z,99712.00
2022-08-31T13:29:56.486Z,99704.41
2022-08-31T13:32:33.002Z,99702.78
2022-08-31T13:35:04.416Z,99724.53
2022-08-31T13:37:39.329Z,99724.53
2022-08-31T13:40:09.350Z,99731.59
2022-08-31T13:42:42.854Z,99731.59
2022-08-31T13:45:26.574Z,99729.69
2022-08-31T13:47:57.654Z,99735.94
2022-08-31T13:50:27.938Z,99723.44
2022-08-31T13:53:25.363Z,99732.41
2022-08-31T13:55:48.858Z,99730.78
2022-08-31T13:58:26.143Z,99719.91
2022-08-31T14:00:58.883Z,99725.34
2022-08-31T14:03:45.121Z,99713.66
2022-08-31T14:06:24.028Z,99718.25
2022-08-31T14:08:55.180Z,99724.53
2022-08-31T14:11:29.156Z,99717.44
2022-08-31T14:14:04.259Z,99713.88
2022-08-31T14:16:35.125Z,99725.34
2022-08-31T14:19:03.294Z,99721.81
2022-08-31T14:21:32.465Z,99731.59
2022-08-31T14:24:02.607Z,99724.53
2022-08-31T14:26:37.033Z,99722.34
2022-08-31T14:29:12.502Z,99717.75
2022-08-31T14:31:44.213Z,99715.03
2022-08-31T14:34:32.193Z,99701.44
2022-08-31T14:37:02.466Z,99692.19
2022-08-31T14:39:33.072Z,99692.19
2022-08-31T14:42:02.271Z,99695.72
2022-08-31T14:44:32.139Z,99698.44
2022-08-31T14:47:00.228Z,99692.19
2022-08-31T14:49:31.586Z,99687.56
2022-08-31T14:52:04.763Z,99696.28
2022-08-31T14:54:37.339Z,99687.56
2022-08-31T14:57:08.379Z,99691.94
2022-08-31T14:59:37.769Z,99689.47
2022-08-31T15:02:06.863Z,99679.41
2022-08-31T15:04:34.934Z,99688.38
2022-08-31T15:07:09.722Z,99685.94
2022-08-31T15:09:41.945Z,99693.00
2022-08-31T15:12:14.780Z,99700.09
2022-08-31T15:14:44.697Z,99705.53
2022-08-31T15:17:18.986Z,99700.09
2022-08-31T15:19:50.428Z,99700.09
2022-08-31T15:22:19.205Z,99690.84
2022-08-31T15:24:49.655Z,99693.56
2022-08-31T15:27:17.698Z,99691.66
2022-08-31T15:29:47.373Z,99691.94
2022-08-31T15:32:16.550Z,99692.47
2022-08-31T15:34:57.708Z,99702.28
2022-08-31T15:37:27.454Z,99704.19
2022-08-31T15:40:02.055Z,99706.06
2022-08-31T15:42:36.733Z,99697.91
2022-08-31T15:45:05.166Z,99697.09
2022-08-31T15:47:53.560Z,99691.66
2022-08-31T15:50:23.283Z,99694.13
2022-08-31T15:52:52.213Z,99690.84
2022-08-31T15:55:26.686Z,99695.47
2022-08-31T15:57:55.201Z,99689.75
2022-08-31T16:00:23.839Z,99682.66
2022-08-31T16:02:57.732Z,99679.97
2022-08-31T16:05:28.280Z,99678.34
2022-08-31T16:07:57.489Z,99683.78
2022-08-31T16:10:28.159Z,99681.06
2022-08-31T16:12:56.184Z,99676.41
2022-08-31T16:15:25.024Z,99673.69
2022-08-31T16:17:57.663Z,99679.97
2022-08-31T16:20:27.446Z,99679.97
2022-08-31T16:22:55.547Z,99676.41
2022-08-31T16:25:25.293Z,99680.75
2022-08-31T16:27:59.883Z,99667.44
2022-08-31T16:30:27.993Z,99682.66
2022-08-31T16:32:56.067Z,99669.88
2022-08-31T16:35:24.070Z,99667.97
2022-08-31T16:37:52.120Z,99669.88
2022-08-31T16:40:23.261Z,99679.97
2022-08-31T16:42:51.264Z,99679.97
2022-08-31T16:45:20.668Z,99674.50
2022-08-31T16:47:48.598Z,99667.44
2022-08-31T16:50:16.158Z,99675.06
2022-08-31T16:52:44.652Z,99674.22
2022-08-31T16:55:17.158Z,99674.22
2022-08-31T16:57:45.634Z,99668.78
2022-08-31T17:00:14.651Z,99667.94
2022-08-31T17:02:44.061Z,99667.94
2022-08-31T17:05:12.951Z,99681.56
2022-08-31T17:07:42.780Z,99677.22
2022-08-31T17:10:11.419Z,99683.47
2022-08-31T17:12:42.051Z,99679.94
2022-08-31T17:15:14.029Z,99678.03
2022-08-31T17:17:46.238Z,99687.00
2022-08-31T17:20:16.152Z,99682.66
2022-08-31T17:22:46.050Z,99689.72
2022-08-31T17:25:14.635Z,99686.19
2022-08-31T17:27:42.587Z,99692.72
2022-08-31T17:30:13.882Z,99689.72
2022-08-31T17:32:45.031Z,99690.81
2022-08-31T17:35:18.720Z,99689.72
2022-08-31T17:37:47.847Z,99696.81
2022-08-31T17:40:16.873Z,99689.72
2022-08-31T17:42:46.291Z,99695.16
2022-08-31T17:45:15.793Z,99698.97
2022-08-31T17:47:45.208Z,99705.22
2022-08-31T17:50:17.167Z,99703.59
2022-08-31T17:52:45.417Z,99712.56
2022-08-31T17:55:13.437Z,99703.59
2022-08-31T17:57:42.140Z,99715.53
2022-08-31T18:00:14.425Z,99718.25
2022-08-31T18:02:42.400Z,99712.00
2022-08-31T18:05:15.785Z,99714.72
2022-08-31T18:07:43.747Z,99721.22
2022-08-31T18:10:12.730Z,99722.28
2022-08-31T18:12:42.117Z,99715.78
2022-08-31T18:15:11.560Z,99723.94
2022-08-31T18:17:40.020Z,99736.72
2022-08-31T18:20:09.157Z,99738.59
2022-08-31T18:22:39.978Z,99738.59
2022-08-31T18:25:08.534Z,99743.78
2022-08-31T18:27:36.562Z,99742.16
2022-08-31T18:30:05.243Z,99755.53
2022-08-31T18:32:36.171Z,99760.13
2022-08-31T18:35:05.960Z,99765.56
2022-08-31T18:37:34.884Z,99771.84
2022-08-31T18:40:22.185Z,99779.16
2022-08-31T18:43:07.310Z,99782.72
2022-08-31T18:45:39.564Z,99786.50
2022-08-31T18:48:24.299Z,99786.50
2022-08-31T18:50:55.169Z,99786.50
2022-08-31T18:53:28.976Z,99785.69
2022-08-31T18:56:00.391Z,99784.03
2022-08-31T18:58:28.863Z,99785.94
2022-08-31T19:00:57.628Z,99780.50
2022-08-31T19:03:27.639Z,99776.16
2022-08-31T19:05:56.663Z,99777.22
2022-08-31T19:08:25.035Z,99778.88
2022-08-31T19:10:57.278Z,99769.88
2022-08-31T19:13:29.948Z,99766.34
2022-08-31T19:16:02.146Z,99770.16
2022-08-31T19:18:34.152Z,99767.41
2022-08-31T19:21:11.968Z,99767.41
2022-08-31T19:23:39.968Z,99760.34
2022-08-31T19:26:08.087Z,99763.59
2022-08-31T19:28:37.481Z,99760.06
2022-08-31T19:31:06.522Z,99751.09
2022-08-31T19:33:34.760Z,99751.09
2022-08-31T19:36:04.707Z,99741.03
2022-08-31T19:38:32.944Z,99745.66
2022-08-31T19:41:01.553Z,99745.66
2022-08-31T19:43:53.600Z,99742.13
2022-08-31T19:46:21.273Z,99736.69
2022-08-31T19:48:49.641Z,99739.41
2022-08-31T19:51:18.872Z,99740.22
2022-08-31T19:53:46.911Z,99728.53
2022-08-31T19:56:17.661Z,99733.16
2022-08-31T19:58:47.054Z,99725.25
2022-08-31T20:01:15.298Z,99724.44
2022-08-31T20:03:45.987Z,99729.88
2022-08-31T20:06:15.479Z,99724.44
2022-08-31T20:08:44.164Z,99722.78
2022-08-31T20:11:14.059Z,99716.53
2022-08-31T20:13:44.788Z,99709.47
2022-08-31T20:16:13.151Z,99713.25
2022-08-31T20:18:46.262Z,99701.31
2022-08-31T20:21:17.817Z,99707.81
2022-08-31T20:23:47.800Z,99705.94
2022-08-31T20:26:15.893Z,99714.09
2022-08-31T20:28:43.847Z,99704.03
2022-08-31T20:31:12.492Z,99703.22
2022-08-31T20:33:43.207Z,99704.03
2022-08-31T20:36:18.793Z,99700.50
2022-08-31T20:38:46.966Z,99697.78
2022-08-31T20:41:14.986Z,99695.88
2022-08-31T20:43:44.666Z,99691.25
2022-08-31T20:46:33.522Z,99700.50
2022-08-31T20:49:27.139Z,99681.47
2022-08-31T20:51:56.800Z,99679.81
2022-08-31T20:54:25.218Z,99681.47
2022-08-31T20:56:53.715Z,99680.63
2022-08-31T20:59:23.416Z,99672.75
2022-08-31T21:01:55.251Z,99667.31
2022-08-31T21:04:23.629Z,99671.09
2022-08-31T21:06:52.303Z,99671.09
2022-08-31T21:09:21.698Z,99664.03
2022-08-31T21:11:49.892Z,99662.41
2022-08-31T21:14:20.017Z,99661.31
2022-08-31T21:16:48.222Z,99666.19
2022-08-31T21:19:17.210Z,99659.94
2022-08-31T21:21:47.089Z,99666.19
2022-08-31T21:24:17.110Z,99658.03
2022-08-31T21:26:46.643Z,99657.22
2022-08-31T21:29:16.558Z,99657.22
2022-08-31T21:31:51.994Z,99651.78
2022-08-31T21:34:26.473Z,99653.69
2022-08-31T21:36:54.487Z,99649.06
2022-08-31T21:39:22.766Z,99644.44
2022-08-31T21:41:52.162Z,99638.19
2022-08-31T21:44:20.940Z,99633.56
2022-08-31T21:46:50.841Z,99643.63
2022-08-31T21:49:19.666Z,99641.72
2022-08-31T21:51:49.798Z,99649.06
2022-08-31T21:54:19.149Z,99646.34
2022-08-31T21:56:48.773Z,99644.44
2022-08-31T21:59:19.246Z,99645.53
2022-08-31T22:01:47.492Z,99634.09
2022-08-31T22:04:16.302Z,99636.56
2022-08-31T22:06:44.589Z,99635.72
2022-08-31T22:09:13.514Z,99627.56
2022-08-31T22:11:43.961Z,99629.75
2022-08-31T22:14:12.440Z,99630.56
2022-08-31T22:16:42.052Z,99627.03
2022-08-31T22:19:13.288Z,99619.94
2022-08-31T22:21:43.079Z,99618.31
2022-08-31T22:24:12.511Z,99623.75
2022-08-31T22:26:54.726Z,99626.47
2022-08-31T22:29:24.322Z,99625.38
2022-08-31T22:31:54.565Z,99623.75
2022-08-31T22:34:22.637Z,99630.00
2022-08-31T22:36:52.136Z,99635.44
2022-08-31T22:39:21.321Z,99630.81
2022-08-31T22:41:49.334Z,99626.47
2022-08-31T22:44:19.716Z,99629.19
2022-08-31T22:46:47.925Z,99630.00
2022-08-31T22:49:17.442Z,99627.28
2022-08-31T22:51:48.479Z,99628.09
2022-08-31T22:54:16.953Z,99629.19
2022-08-31T22:56:45.035Z,99619.41
2022-08-31T22:59:14.108Z,99623.75
2022-08-31T23:01:43.403Z,99628.38
2022-08-31T23:04:12.682Z,99634.63
2022-08-31T23:06:42.380Z,99622.13
2022-08-31T23:09:11.536Z,99626.72
2022-08-31T23:11:39.884Z,99620.47
2022-08-31T23:14:10.293Z,99622.63
2022-08-31T23:16:39.640Z,99628.91
2022-08-31T23:19:12.148Z,99637.06
2022-08-31T23:21:43.150Z,99633.50
2022-08-31T23:24:11.251Z,99630.78
2022-08-31T23:26:40.673Z,99631.06
2022-08-31T23:29:10.049Z,99631.88
2022-08-31T23:31:38.396Z,99628.34
2022-08-31T23:34:09.696Z,99631.06
2022-08-31T23:36:37.756Z,99630.25
2022-08-31T23:39:07.175Z,99629.69
2022-08-31T23:41:38.756Z,99627.78
2022-08-31T23:44:09.530Z,99635.13
2022-08-31T23:46:38.318Z,99626.97
2022-08-31T23:49:07.134Z,99621.53
2022-08-31T23:51:35.350Z,99630.75
2022-08-31T23:54:06.464Z,99628.03
2022-08-31T23:56:36.493Z,99619.88
2022-08-31T23:59:08.983Z,99614.44
